sensor_id;sensor_type;location;lat;lon;timestamp;P1;durP1;ratioP1;P2;durP2;ratioP2
69485;SDS011;56677;51.710;5.366;2023-03-31T06:24:32;4.30;;;2.03;;
69485;SDS011;56677;51.710;5.366;2023-03-31T06:26:57;3.10;;;1.73;;
69485;SDS011;56677;51.710;5.366;2023-03-31T06:29:22;3.17;;;1.73;;
69485;SDS011;56677;51.710;5.366;2023-03-31T06:31:48;3.00;;;1.93;;
69485;SDS011;56677;51.710;5.366;2023-03-31T06:34:13;2.75;;;1.48;;
69485;SDS011;56677;51.710;5.366;2023-03-31T06:36:38;2.67;;;1.67;;
69485;SDS011;56677;51.710;5.366;2023-03-31T06:39:03;2.88;;;1.65;;
69485;SDS011;56677;51.710;5.366;2023-03-31T06:41:28;3.20;;;1.60;;
69485;SDS011;56677;51.710;5.366;2023-03-31T06:43:53;3.00;;;1.40;;
69485;SDS011;56677;51.710;5.366;2023-03-31T06:46:18;2.83;;;1.70;;
69485;SDS011;56677;51.710;5.366;2023-03-31T06:48:43;5.05;;;1.58;;
69485;SDS011;56677;51.710;5.366;2023-03-31T06:51:09;9.57;;;1.75;;
69485;SDS011;56677;51.710;5.366;2023-03-31T06:53:34;4.28;;;1.73;;
69485;SDS011;56677;51.710;5.366;2023-03-31T06:55:59;10.10;;;1.80;;
69485;SDS011;56677;51.710;5.366;2023-03-31T06:58:25;5.20;;;1.63;;
69485;SDS011;56677;51.710;5.366;2023-03-31T07:00:50;3.17;;;1.40;;
69485;SDS011;56677;51.710;5.366;2023-03-31T07:03:15;3.05;;;1.45;;
69485;SDS011;56677;51.710;5.366;2023-03-31T07:05:40;3.37;;;1.50;;
69485;SDS011;56677;51.710;5.366;2023-03-31T07:08:05;4.45;;;1.60;;
69485;SDS011;56677;51.710;5.366;2023-03-31T07:10:30;4.15;;;1.75;;
69485;SDS011;56677;51.710;5.366;2023-03-31T07:12:56;7.28;;;1.60;;
69485;SDS011;56677;51.710;5.366;2023-03-31T07:15:21;3.17;;;1.73;;
69485;SDS011;56677;51.710;5.366;2023-03-31T07:17:47;3.07;;;1.33;;
69485;SDS011;56677;51.710;5.366;2023-03-31T07:20:13;3.30;;;1.17;;
69485;SDS011;56677;51.710;5.366;2023-03-31T07:22:38;4.38;;;1.38;;
69485;SDS011;56677;51.710;5.366;2023-03-31T07:25:03;6.45;;;1.10;;
69485;SDS011;56677;51.710;5.366;2023-03-31T07:27:28;2.87;;;1.13;;
69485;SDS011;56677;51.710;5.366;2023-03-31T07:29:54;3.17;;;1.10;;
69485;SDS011;56677;51.710;5.366;2023-03-31T07:32:19;4.22;;;1.20;;
69485;SDS011;56677;51.710;5.366;2023-03-31T07:34:44;3.10;;;1.17;;
69485;SDS011;56677;51.710;5.366;2023-03-31T07:37:09;3.65;;;1.50;;
69485;SDS011;56677;51.710;5.366;2023-03-31T07:39:34;2.13;;;1.30;;
69485;SDS011;56677;51.710;5.366;2023-03-31T07:41:59;2.93;;;1.30;;
69485;SDS011;56677;51.710;5.366;2023-03-31T07:44:24;2.38;;;1.10;;
69485;SDS011;56677;51.710;5.366;2023-03-31T07:46:50;2.40;;;1.20;;
69485;SDS011;56677;51.710;5.366;2023-03-31T07:49:15;2.67;;;1.25;;
69485;SDS011;56677;51.710;5.366;2023-03-31T07:51:40;8.52;;;2.28;;
69485;SDS011;56677;51.710;5.366;2023-03-31T07:54:05;3.33;;;1.57;;
69485;SDS011;56677;51.710;5.366;2023-03-31T07:56:30;2.15;;;1.20;;
69485;SDS011;56677;51.710;5.366;2023-03-31T07:58:55;3.95;;;1.33;;
69485;SDS011;56677;51.710;5.366;2023-03-31T08:01:20;6.88;;;1.60;;
69485;SDS011;56677;51.710;5.366;2023-03-31T08:03:46;7.50;;;1.60;;
69485;SDS011;56677;51.710;5.366;2023-03-31T08:06:19;4.05;;;1.50;;
69485;SDS011;56677;51.710;5.366;2023-03-31T08:08:44;3.85;;;1.42;;
69485;SDS011;56677;51.710;5.366;2023-03-31T08:11:09;2.43;;;1.50;;
69485;SDS011;56677;51.710;5.366;2023-03-31T08:13:34;2.28;;;1.20;;
69485;SDS011;56677;51.710;5.366;2023-03-31T08:16:00;3.07;;;1.23;;
69485;SDS011;56677;51.710;5.366;2023-03-31T08:18:25;2.50;;;1.30;;
69485;SDS011;56677;51.710;5.366;2023-03-31T08:20:50;3.65;;;1.67;;
69485;SDS011;56677;51.710;5.366;2023-03-31T08:23:15;3.47;;;1.33;;
69485;SDS011;56677;51.710;5.366;2023-03-31T08:25:40;2.73;;;1.37;;
69485;SDS011;56677;51.710;5.366;2023-03-31T08:28:05;2.90;;;1.50;;
69485;SDS011;56677;51.710;5.366;2023-03-31T08:30:31;3.85;;;1.33;;
69485;SDS011;56677;51.710;5.366;2023-03-31T08:32:56;3.87;;;1.70;;
69485;SDS011;56677;51.710;5.366;2023-03-31T08:35:21;2.43;;;1.13;;
69485;SDS011;56677;51.710;5.366;2023-03-31T08:37:46;5.20;;;1.40;;
69485;SDS011;56677;51.710;5.366;2023-03-31T08:40:13;5.25;;;1.35;;
69485;SDS011;56677;51.710;5.366;2023-03-31T08:42:49;3.85;;;1.35;;
69485;SDS011;56677;51.710;5.366;2023-03-31T08:45:18;5.85;;;1.50;;
69485;SDS011;56677;51.710;5.366;2023-03-31T08:47:44;4.32;;;1.38;;
69485;SDS011;56677;51.710;5.366;2023-03-31T08:50:15;7.43;;;1.50;;
69485;SDS011;56677;51.710;5.366;2023-03-31T08:52:41;4.00;;;1.20;;
69485;SDS011;56677;51.710;5.366;2023-03-31T08:55:11;9.77;;;1.20;;
69485;SDS011;56677;51.710;5.366;2023-03-31T08:57:39;4.63;;;1.20;;
69485;SDS011;56677;51.710;5.366;2023-03-31T09:00:12;3.60;;;1.40;;
69485;SDS011;56677;51.710;5.366;2023-03-31T09:10:20;5.65;;;1.45;;
69485;SDS011;56677;51.710;5.366;2023-03-31T09:15:28;7.87;;;1.70;;
69485;SDS011;56677;51.710;5.366;2023-03-31T09:17:56;6.53;;;1.48;;
69485;SDS011;56677;51.710;5.366;2023-03-31T09:20:24;5.88;;;1.60;;
69485;SDS011;56677;51.710;5.366;2023-03-31T09:22:54;4.30;;;1.45;;
69485;SDS011;56677;51.710;5.366;2023-03-31T09:25:21;3.42;;;1.20;;
69485;SDS011;56677;51.710;5.366;2023-03-31T09:27:47;6.27;;;1.17;;
69485;SDS011;56677;51.710;5.366;2023-03-31T09:30:27;2.72;;;1.20;;
69485;SDS011;56677;51.710;5.366;2023-03-31T09:35:36;4.90;;;1.67;;
69485;SDS011;56677;51.710;5.366;2023-03-31T09:38:02;4.30;;;1.73;;
69485;SDS011;56677;51.710;5.366;2023-03-31T09:40:27;4.50;;;1.27;;
69485;SDS011;56677;51.710;5.366;2023-03-31T09:42:57;4.90;;;1.50;;
69485;SDS011;56677;51.710;5.366;2023-03-31T09:45:23;3.03;;;1.40;;
69485;SDS011;56677;51.710;5.366;2023-03-31T09:47:55;3.40;;;1.60;;
69485;SDS011;56677;51.710;5.366;2023-03-31T09:50:22;4.05;;;1.40;;
69485;SDS011;56677;51.710;5.366;2023-03-31T09:55:37;3.10;;;1.40;;
69485;SDS011;56677;51.710;5.366;2023-03-31T09:58:01;4.70;;;1.42;;
69485;SDS011;56677;51.710;5.366;2023-03-31T10:00:30;5.13;;;1.75;;
69485;SDS011;56677;51.710;5.366;2023-03-31T10:02:56;4.32;;;1.38;;
69485;SDS011;56677;51.710;5.366;2023-03-31T10:06:07;3.90;;;1.30;;
69485;SDS011;56677;51.710;5.366;2023-03-31T10:10:35;4.37;;;1.43;;
69485;SDS011;56677;51.710;5.366;2023-03-31T10:13:00;6.80;;;1.33;;
69485;SDS011;56677;51.710;5.366;2023-03-31T10:15:31;3.90;;;1.37;;
69485;SDS011;56677;51.710;5.366;2023-03-31T10:18:01;4.28;;;1.90;;
69485;SDS011;56677;51.710;5.366;2023-03-31T10:20:30;4.28;;;1.65;;
69485;SDS011;56677;51.710;5.366;2023-03-31T10:22:55;3.83;;;1.33;;
69485;SDS011;56677;51.710;5.366;2023-03-31T10:25:26;5.10;;;1.80;;
69485;SDS011;56677;51.710;5.366;2023-03-31T10:27:52;4.80;;;1.60;;
69485;SDS011;56677;51.710;5.366;2023-03-31T10:30:32;3.92;;;1.08;;
69485;SDS011;56677;51.710;5.366;2023-03-31T10:32:58;9.50;;;1.60;;
69485;SDS011;56677;51.710;5.366;2023-03-31T10:35:30;5.50;;;1.55;;
69485;SDS011;56677;51.710;5.366;2023-03-31T10:37:57;7.10;;;1.88;;
69485;SDS011;56677;51.710;5.366;2023-03-31T10:40:24;4.63;;;1.40;;
69485;SDS011;56677;51.710;5.366;2023-03-31T10:43:04;6.60;;;1.65;;
69485;SDS011;56677;51.710;5.366;2023-03-31T10:45:37;3.72;;;1.48;;
69485;SDS011;56677;51.710;5.366;2023-03-31T10:48:08;5.23;;;1.33;;
69485;SDS011;56677;51.710;5.366;2023-03-31T10:50:40;6.45;;;1.73;;
69485;SDS011;56677;51.710;5.366;2023-03-31T10:53:13;4.70;;;1.80;;
69485;SDS011;56677;51.710;5.366;2023-03-31T10:55:41;4.18;;;1.80;;
69485;SDS011;56677;51.710;5.366;2023-03-31T10:58:20;3.70;;;1.77;;
69485;SDS011;56677;51.710;5.366;2023-03-31T11:03:30;4.95;;;1.98;;
69485;SDS011;56677;51.710;5.366;2023-03-31T11:06:12;5.18;;;1.60;;
69485;SDS011;56677;51.710;5.366;2023-03-31T11:08:42;5.72;;;2.00;;
69485;SDS011;56677;51.710;5.366;2023-03-31T11:13:53;4.83;;;1.40;;
69485;SDS011;56677;51.710;5.366;2023-03-31T11:27:02;6.50;;;1.80;;
69485;SDS011;56677;51.710;5.366;2023-03-31T11:29:39;6.38;;;1.92;;
69485;SDS011;56677;51.710;5.366;2023-03-31T11:40:01;8.37;;;2.40;;
69485;SDS011;56677;51.710;5.366;2023-03-31T11:42:38;4.68;;;2.28;;
69485;SDS011;56677;51.710;5.366;2023-03-31T11:45:16;5.07;;;2.55;;
69485;SDS011;56677;51.710;5.366;2023-03-31T11:47:43;5.35;;;2.22;;
69485;SDS011;56677;51.710;5.366;2023-03-31T11:50:11;5.95;;;2.67;;
69485;SDS011;56677;51.710;5.366;2023-03-31T11:52:41;6.40;;;2.30;;
69485;SDS011;56677;51.710;5.366;2023-03-31T11:55:17;5.55;;;3.00;;
69485;SDS011;56677;51.710;5.366;2023-03-31T12:02:43;16.33;;;5.15;;
69485;SDS011;56677;51.710;5.366;2023-03-31T12:05:10;16.80;;;5.88;;
69485;SDS011;56677;51.710;5.366;2023-03-31T12:07:38;19.90;;;6.33;;
69485;SDS011;56677;51.710;5.366;2023-03-31T12:12:43;17.43;;;6.50;;
69485;SDS011;56677;51.710;5.366;2023-03-31T12:17:34;18.48;;;5.70;;
69485;SDS011;56677;51.710;5.366;2023-03-31T12:20:02;17.77;;;5.72;;
69485;SDS011;56677;51.710;5.366;2023-03-31T12:22:28;18.37;;;5.57;;
69485;SDS011;56677;51.710;5.366;2023-03-31T12:24:55;15.70;;;5.50;;
69485;SDS011;56677;51.710;5.366;2023-03-31T12:27:37;15.77;;;5.63;;
69485;SDS011;56677;51.710;5.366;2023-03-31T12:32:42;15.43;;;5.47;;
69485;SDS011;56677;51.710;5.366;2023-03-31T12:37:59;16.17;;;5.30;;
69485;SDS011;56677;51.710;5.366;2023-03-31T12:48:37;15.05;;;5.20;;
69485;SDS011;56677;51.710;5.366;2023-03-31T12:53:54;13.68;;;5.03;;
69485;SDS011;56677;51.710;5.366;2023-03-31T12:56:23;18.35;;;5.45;;
69485;SDS011;56677;51.710;5.366;2023-03-31T12:58:48;13.57;;;5.15;;
69485;SDS011;56677;51.710;5.366;2023-03-31T13:01:17;13.55;;;4.93;;
69485;SDS011;56677;51.710;5.366;2023-03-31T13:03:47;14.93;;;4.97;;
69485;SDS011;56677;51.710;5.366;2023-03-31T13:13:58;11.65;;;4.15;;
69485;SDS011;56677;51.710;5.366;2023-03-31T13:16:24;15.43;;;4.57;;
69485;SDS011;56677;51.710;5.366;2023-03-31T13:18:50;13.20;;;4.60;;
69485;SDS011;56677;51.710;5.366;2023-03-31T13:21:16;10.88;;;4.60;;
69485;SDS011;56677;51.710;5.366;2023-03-31T13:23:42;10.10;;;3.87;;
69485;SDS011;56677;51.710;5.366;2023-03-31T13:26:32;14.47;;;4.90;;
69485;SDS011;56677;51.710;5.366;2023-03-31T13:29:39;12.65;;;4.30;;
69485;SDS011;56677;51.710;5.366;2023-03-31T13:34:22;10.88;;;4.10;;
69485;SDS011;56677;51.710;5.366;2023-03-31T13:36:52;10.60;;;4.23;;
69485;SDS011;56677;51.710;5.366;2023-03-31T13:42:19;11.15;;;4.13;;
69485;SDS011;56677;51.710;5.366;2023-03-31T13:49:52;11.02;;;3.80;;
69485;SDS011;56677;51.710;5.366;2023-03-31T13:52:23;9.85;;;3.90;;
69485;SDS011;56677;51.710;5.366;2023-03-31T14:02:24;10.88;;;3.63;;
69485;SDS011;56677;51.710;5.366;2023-03-31T14:09:54;9.07;;;3.50;;
69485;SDS011;56677;51.710;5.366;2023-03-31T14:12:20;10.30;;;3.53;;
69485;SDS011;56677;51.710;5.366;2023-03-31T14:14:46;11.10;;;3.50;;
69485;SDS011;56677;51.710;5.366;2023-03-31T14:17:11;9.20;;;3.40;;
69485;SDS011;56677;51.710;5.366;2023-03-31T14:30:46;8.40;;;3.42;;
69485;SDS011;56677;51.710;5.366;2023-03-31T14:33:26;8.63;;;3.17;;
69485;SDS011;56677;51.710;5.366;2023-03-31T14:38:24;9.30;;;3.63;;
69485;SDS011;56677;51.710;5.366;2023-03-31T14:40:52;7.63;;;3.00;;
69485;SDS011;56677;51.710;5.366;2023-03-31T14:43:19;7.15;;;3.17;;
69485;SDS011;56677;51.710;5.366;2023-03-31T14:45:44;10.63;;;3.40;;
69485;SDS011;56677;51.710;5.366;2023-03-31T14:48:10;9.95;;;3.60;;
69485;SDS011;56677;51.710;5.366;2023-03-31T14:50:36;10.18;;;3.20;;
69485;SDS011;56677;51.710;5.366;2023-03-31T14:53:01;8.37;;;3.57;;
69485;SDS011;56677;51.710;5.366;2023-03-31T14:55:27;8.80;;;2.90;;
69485;SDS011;56677;51.710;5.366;2023-03-31T14:57:53;7.72;;;3.05;;
69485;SDS011;56677;51.710;5.366;2023-03-31T15:00:32;9.82;;;2.63;;
69485;SDS011;56677;51.710;5.366;2023-03-31T15:02:58;6.90;;;2.87;;
69485;SDS011;56677;51.710;5.366;2023-03-31T15:05:29;7.13;;;2.85;;
69485;SDS011;56677;51.710;5.366;2023-03-31T15:08:07;6.40;;;2.70;;
69485;SDS011;56677;51.710;5.366;2023-03-31T15:10:38;6.90;;;2.78;;
69485;SDS011;56677;51.710;5.366;2023-03-31T15:13:08;8.65;;;3.25;;
69485;SDS011;56677;51.710;5.366;2023-03-31T15:15:33;8.87;;;2.80;;
69485;SDS011;56677;51.710;5.366;2023-03-31T15:17:58;7.90;;;3.10;;
69485;SDS011;56677;51.710;5.366;2023-03-31T15:20:28;7.30;;;3.10;;
69485;SDS011;56677;51.710;5.366;2023-03-31T15:22:57;9.40;;;3.15;;
69485;SDS011;56677;51.710;5.366;2023-03-31T15:25:30;9.50;;;3.45;;
69485;SDS011;56677;51.710;5.366;2023-03-31T15:28:02;9.82;;;2.85;;
69485;SDS011;56677;51.710;5.366;2023-03-31T15:30:28;5.80;;;2.60;;
69485;SDS011;56677;51.710;5.366;2023-03-31T15:32:54;7.85;;;2.63;;
69485;SDS011;56677;51.710;5.366;2023-03-31T15:35:20;8.73;;;2.80;;
69485;SDS011;56677;51.710;5.366;2023-03-31T15:37:46;6.93;;;2.53;;
69485;SDS011;56677;51.710;5.366;2023-03-31T15:40:22;8.23;;;2.35;;
69485;SDS011;56677;51.710;5.366;2023-03-31T15:42:47;7.75;;;2.65;;
69485;SDS011;56677;51.710;5.366;2023-03-31T15:47:53;8.07;;;2.53;;
69485;SDS011;56677;51.710;5.366;2023-03-31T15:50:21;7.15;;;2.35;;
69485;SDS011;56677;51.710;5.366;2023-03-31T15:52:48;7.10;;;2.80;;
69485;SDS011;56677;51.710;5.366;2023-03-31T15:57:47;7.25;;;3.00;;
69485;SDS011;56677;51.710;5.366;2023-03-31T16:00:55;8.13;;;3.40;;
69485;SDS011;56677;51.710;5.366;2023-03-31T16:03:01;8.48;;;3.15;;
69485;SDS011;56677;51.710;5.366;2023-03-31T16:05:32;6.97;;;2.85;;
69485;SDS011;56677;51.710;5.366;2023-03-31T16:08:00;6.03;;;3.17;;
69485;SDS011;56677;51.710;5.366;2023-03-31T16:10:25;6.68;;;3.33;;
69485;SDS011;56677;51.710;5.366;2023-03-31T16:15:17;8.77;;;3.75;;
69485;SDS011;56677;51.710;5.366;2023-03-31T16:17:51;6.67;;;3.63;;
69485;SDS011;56677;51.710;5.366;2023-03-31T16:22:50;9.15;;;4.05;;
69485;SDS011;56677;51.710;5.366;2023-03-31T16:25:17;9.73;;;4.68;;
69485;SDS011;56677;51.710;5.366;2023-03-31T16:27:44;6.78;;;3.80;;
69485;SDS011;56677;51.710;5.366;2023-03-31T16:30:11;6.93;;;4.00;;
69485;SDS011;56677;51.710;5.366;2023-03-31T16:32:37;8.18;;;4.55;;
69485;SDS011;56677;51.710;5.366;2023-03-31T16:35:04;8.93;;;4.13;;
69485;SDS011;56677;51.710;5.366;2023-03-31T16:37:29;7.78;;;3.78;;
69485;SDS011;56677;51.710;5.366;2023-03-31T16:39:54;9.13;;;4.60;;
69485;SDS011;56677;51.710;5.366;2023-03-31T16:42:20;9.13;;;4.47;;
69485;SDS011;56677;51.710;5.366;2023-03-31T16:44:45;9.30;;;4.40;;
69485;SDS011;56677;51.710;5.366;2023-03-31T16:47:11;7.43;;;4.60;;
69485;SDS011;56677;51.710;5.366;2023-03-31T16:49:36;7.13;;;3.90;;
69485;SDS011;56677;51.710;5.366;2023-03-31T16:52:01;8.45;;;4.57;;
69485;SDS011;56677;51.710;5.366;2023-03-31T16:54:26;9.13;;;4.00;;
69485;SDS011;56677;51.710;5.366;2023-03-31T16:56:51;8.13;;;4.60;;
69485;SDS011;56677;51.710;5.366;2023-03-31T16:59:16;7.55;;;3.90;;
69485;SDS011;56677;51.710;5.366;2023-03-31T17:01:41;9.23;;;4.15;;
69485;SDS011;56677;51.710;5.366;2023-03-31T17:04:07;6.90;;;4.30;;
69485;SDS011;56677;51.710;5.366;2023-03-31T17:06:32;7.68;;;4.00;;
69485;SDS011;56677;51.710;5.366;2023-03-31T17:08:57;6.27;;;3.70;;
69485;SDS011;56677;51.710;5.366;2023-03-31T17:11:22;6.80;;;3.85;;
69485;SDS011;56677;51.710;5.366;2023-03-31T17:13:47;7.63;;;3.83;;
69485;SDS011;56677;51.710;5.366;2023-03-31T17:16:12;11.65;;;3.83;;
69485;SDS011;56677;51.710;5.366;2023-03-31T17:18:38;7.17;;;3.60;;
69485;SDS011;56677;51.710;5.366;2023-03-31T17:21:04;8.20;;;3.63;;
69485;SDS011;56677;51.710;5.366;2023-03-31T17:23:29;6.85;;;3.42;;
69485;SDS011;56677;51.710;5.366;2023-03-31T17:25:54;8.27;;;3.57;;
69485;SDS011;56677;51.710;5.366;2023-03-31T17:28:19;5.68;;;3.60;;
69485;SDS011;56677;51.710;5.366;2023-03-31T17:30:45;7.00;;;3.83;;
69485;SDS011;56677;51.710;5.366;2023-03-31T17:33:10;6.47;;;3.45;;
69485;SDS011;56677;51.710;5.366;2023-03-31T17:35:35;7.32;;;3.92;;
69485;SDS011;56677;51.710;5.366;2023-03-31T17:38:00;6.53;;;3.53;;
69485;SDS011;56677;51.710;5.366;2023-03-31T17:40:25;6.27;;;3.20;;
69485;SDS011;56677;51.710;5.366;2023-03-31T17:42:50;8.47;;;3.40;;
69485;SDS011;56677;51.710;5.366;2023-03-31T17:45:16;9.13;;;3.63;;
69485;SDS011;56677;51.710;5.366;2023-03-31T17:47:41;9.10;;;4.27;;
69485;SDS011;56677;51.710;5.366;2023-03-31T17:50:06;8.87;;;3.87;;
69485;SDS011;56677;51.710;5.366;2023-03-31T17:52:31;5.80;;;3.20;;
69485;SDS011;56677;51.710;5.366;2023-03-31T17:54:57;5.90;;;3.40;;
69485;SDS011;56677;51.710;5.366;2023-03-31T17:57:22;5.97;;;3.67;;
69485;SDS011;56677;51.710;5.366;2023-03-31T17:59:47;6.03;;;3.60;;
69485;SDS011;56677;51.710;5.366;2023-03-31T18:02:12;9.27;;;3.23;;
69485;SDS011;56677;51.710;5.366;2023-03-31T18:04:37;6.33;;;3.10;;
69485;SDS011;56677;51.710;5.366;2023-03-31T18:07:03;5.50;;;3.38;;
69485;SDS011;56677;51.710;5.366;2023-03-31T18:09:28;5.95;;;3.38;;
69485;SDS011;56677;51.710;5.366;2023-03-31T18:11:53;6.67;;;3.00;;
69485;SDS011;56677;51.710;5.366;2023-03-31T18:14:18;5.75;;;3.20;;
69485;SDS011;56677;51.710;5.366;2023-03-31T18:16:43;7.03;;;3.43;;
69485;SDS011;56677;51.710;5.366;2023-03-31T18:19:08;6.30;;;3.30;;
69485;SDS011;56677;51.710;5.366;2023-03-31T18:21:33;8.50;;;3.47;;
69485;SDS011;56677;51.710;5.366;2023-03-31T18:23:59;6.55;;;2.90;;
69485;SDS011;56677;51.710;5.366;2023-03-31T18:26:24;7.22;;;3.00;;
69485;SDS011;56677;51.710;5.366;2023-03-31T18:28:50;6.35;;;3.17;;
69485;SDS011;56677;51.710;5.366;2023-03-31T18:31:15;5.10;;;3.00;;
69485;SDS011;56677;51.710;5.366;2023-03-31T18:33:41;6.50;;;2.88;;
69485;SDS011;56677;51.710;5.366;2023-03-31T18:36:06;6.10;;;3.27;;
69485;SDS011;56677;51.710;5.366;2023-03-31T18:38:31;6.53;;;3.30;;
69485;SDS011;56677;51.710;5.366;2023-03-31T18:40:57;6.33;;;2.90;;
69485;SDS011;56677;51.710;5.366;2023-03-31T18:43:22;5.27;;;3.33;;
69485;SDS011;56677;51.710;5.366;2023-03-31T18:45:47;6.50;;;3.23;;
69485;SDS011;56677;51.710;5.366;2023-03-31T18:48:13;5.87;;;2.90;;
69485;SDS011;56677;51.710;5.366;2023-03-31T18:50:38;5.82;;;2.78;;
69485;SDS011;56677;51.710;5.366;2023-03-31T18:53:03;4.65;;;3.10;;
69485;SDS011;56677;51.710;5.366;2023-03-31T18:55:28;5.70;;;3.17;;
69485;SDS011;56677;51.710;5.366;2023-03-31T18:57:53;5.97;;;2.80;;
69485;SDS011;56677;51.710;5.366;2023-03-31T19:00:18;5.82;;;2.72;;
69485;SDS011;56677;51.710;5.366;2023-03-31T19:02:43;5.07;;;3.05;;
69485;SDS011;56677;51.710;5.366;2023-03-31T19:05:09;5.60;;;2.60;;
69485;SDS011;56677;51.710;5.366;2023-03-31T19:07:34;4.57;;;2.77;;
69485;SDS011;56677;51.710;5.366;2023-03-31T19:09:59;5.38;;;2.80;;
69485;SDS011;56677;51.710;5.366;2023-03-31T19:12:24;4.63;;;2.85;;
69485;SDS011;56677;51.710;5.366;2023-03-31T19:14:49;4.97;;;2.55;;
69485;SDS011;56677;51.710;5.366;2023-03-31T19:17:14;4.45;;;2.35;;
69485;SDS011;56677;51.710;5.366;2023-03-31T19:19:39;5.80;;;2.80;;
69485;SDS011;56677;51.710;5.366;2023-03-31T19:22:04;4.90;;;2.97;;
69485;SDS011;56677;51.710;5.366;2023-03-31T19:24:30;4.77;;;2.70;;
69485;SDS011;56677;51.710;5.366;2023-03-31T19:26:55;4.13;;;2.70;;
69485;SDS011;56677;51.710;5.366;2023-03-31T19:29:20;6.85;;;3.28;;
69485;SDS011;56677;51.710;5.366;2023-03-31T19:31:45;4.80;;;2.50;;
69485;SDS011;56677;51.710;5.366;2023-03-31T19:34:10;4.95;;;2.63;;
69485;SDS011;56677;51.710;5.366;2023-03-31T19:36:36;5.57;;;2.65;;
69485;SDS011;56677;51.710;5.366;2023-03-31T19:39:01;4.20;;;2.40;;
69485;SDS011;56677;51.710;5.366;2023-03-31T19:41:27;4.63;;;2.73;;
69485;SDS011;56677;51.710;5.366;2023-03-31T19:43:52;4.70;;;2.70;;
69485;SDS011;56677;51.710;5.366;2023-03-31T19:46:17;4.73;;;2.73;;
69485;SDS011;56677;51.710;5.366;2023-03-31T19:48:42;3.67;;;2.67;;
69485;SDS011;56677;51.710;5.366;2023-03-31T19:51:08;4.65;;;2.20;;
69485;SDS011;56677;51.710;5.366;2023-03-31T19:53:35;4.77;;;2.60;;
69485;SDS011;56677;51.710;5.366;2023-03-31T19:56:01;4.32;;;2.42;;
69485;SDS011;56677;51.710;5.366;2023-03-31T19:58:26;5.07;;;2.00;;
69485;SDS011;56677;51.710;5.366;2023-03-31T20:00:53;5.22;;;2.47;;
69485;SDS011;56677;51.710;5.366;2023-03-31T20:03:18;4.70;;;2.10;;
69485;SDS011;56677;51.710;5.366;2023-03-31T20:05:43;4.23;;;2.20;;
69485;SDS011;56677;51.710;5.366;2023-03-31T20:08:08;3.80;;;2.10;;
69485;SDS011;56677;51.710;5.366;2023-03-31T20:10:34;4.00;;;2.38;;
69485;SDS011;56677;51.710;5.366;2023-03-31T20:12:59;3.65;;;2.08;;
69485;SDS011;56677;51.710;5.366;2023-03-31T20:15:24;4.45;;;2.42;;
69485;SDS011;56677;51.710;5.366;2023-03-31T20:17:49;5.07;;;2.08;;
69485;SDS011;56677;51.710;5.366;2023-03-31T20:20:14;4.68;;;2.50;;
69485;SDS011;56677;51.710;5.366;2023-03-31T20:22:39;3.83;;;2.20;;
69485;SDS011;56677;51.710;5.366;2023-03-31T20:25:04;4.53;;;2.40;;
69485;SDS011;56677;51.710;5.366;2023-03-31T20:27:30;3.83;;;2.23;;
69485;SDS011;56677;51.710;5.366;2023-03-31T20:29:55;4.35;;;2.28;;
69485;SDS011;56677;51.710;5.366;2023-03-31T20:32:20;5.67;;;2.60;;
69485;SDS011;56677;51.710;5.366;2023-03-31T20:34:45;3.00;;;1.80;;
69485;SDS011;56677;51.710;5.366;2023-03-31T20:37:10;3.23;;;1.80;;
69485;SDS011;56677;51.710;5.366;2023-03-31T20:39:36;3.50;;;2.15;;
69485;SDS011;56677;51.710;5.366;2023-03-31T20:42:01;4.78;;;2.20;;
69485;SDS011;56677;51.710;5.366;2023-03-31T20:44:26;5.38;;;2.30;;
69485;SDS011;56677;51.710;5.366;2023-03-31T20:46:51;5.95;;;2.20;;
69485;SDS011;56677;51.710;5.366;2023-03-31T20:49:16;4.43;;;2.40;;
69485;SDS011;56677;51.710;5.366;2023-03-31T20:51:41;4.50;;;2.25;;
69485;SDS011;56677;51.710;5.366;2023-03-31T20:54:06;4.63;;;2.13;;
69485;SDS011;56677;51.710;5.366;2023-03-31T20:56:38;3.58;;;2.10;;
69485;SDS011;56677;51.710;5.366;2023-03-31T20:59:04;3.70;;;2.17;;
69485;SDS011;56677;51.710;5.366;2023-03-31T21:01:30;3.67;;;1.85;;
69485;SDS011;56677;51.710;5.366;2023-03-31T21:03:56;4.13;;;1.92;;
69485;SDS011;56677;51.710;5.366;2023-03-31T21:06:21;4.57;;;1.93;;
69485;SDS011;56677;51.710;5.366;2023-03-31T21:08:49;4.00;;;2.20;;
69485;SDS011;56677;51.710;5.366;2023-03-31T21:11:15;4.28;;;2.22;;
69485;SDS011;56677;51.710;5.366;2023-03-31T21:13:40;4.73;;;2.00;;
69485;SDS011;56677;51.710;5.366;2023-03-31T21:16:05;3.13;;;1.80;;
69485;SDS011;56677;51.710;5.366;2023-03-31T21:18:31;2.93;;;1.87;;
69485;SDS011;56677;51.710;5.366;2023-03-31T21:20:57;3.22;;;1.98;;
69485;SDS011;56677;51.710;5.366;2023-03-31T21:23:23;4.85;;;1.88;;
69485;SDS011;56677;51.710;5.366;2023-03-31T21:25:49;4.43;;;1.80;;
69485;SDS011;56677;51.710;5.366;2023-03-31T21:28:15;3.58;;;2.13;;
69485;SDS011;56677;51.710;5.366;2023-03-31T21:30:47;3.53;;;1.90;;
69485;SDS011;56677;51.710;5.366;2023-03-31T21:33:13;3.67;;;1.85;;
69485;SDS011;56677;51.710;5.366;2023-03-31T21:35:38;3.13;;;1.90;;
69485;SDS011;56677;51.710;5.366;2023-03-31T21:38:03;3.63;;;1.83;;
69485;SDS011;56677;51.710;5.366;2023-03-31T21:40:28;3.92;;;2.10;;
69485;SDS011;56677;51.710;5.366;2023-03-31T21:42:53;3.63;;;1.85;;
69485;SDS011;56677;51.710;5.366;2023-03-31T21:45:18;4.13;;;2.03;;
69485;SDS011;56677;51.710;5.366;2023-03-31T21:47:43;3.10;;;1.55;;
69485;SDS011;56677;51.710;5.366;2023-03-31T21:50:08;3.30;;;1.70;;
69485;SDS011;56677;51.710;5.366;2023-03-31T21:52:34;2.90;;;1.80;;
69485;SDS011;56677;51.710;5.366;2023-03-31T21:54:59;3.87;;;1.77;;
69485;SDS011;56677;51.710;5.366;2023-03-31T21:57:24;3.10;;;2.00;;
69485;SDS011;56677;51.710;5.366;2023-03-31T21:59:49;4.63;;;1.95;;
69485;SDS011;56677;51.710;5.366;2023-03-31T22:02:14;2.73;;;1.53;;
69485;SDS011;56677;51.710;5.366;2023-03-31T22:04:39;2.97;;;1.50;;
69485;SDS011;56677;51.710;5.366;2023-03-31T22:07:04;4.32;;;1.83;;
69485;SDS011;56677;51.710;5.366;2023-03-31T22:09:30;3.33;;;1.80;;
69485;SDS011;56677;51.710;5.366;2023-03-31T22:11:55;2.88;;;1.85;;
69485;SDS011;56677;51.710;5.366;2023-03-31T22:14:20;3.00;;;1.60;;
69485;SDS011;56677;51.710;5.366;2023-03-31T22:16:45;2.67;;;1.65;;
69485;SDS011;56677;51.710;5.366;2023-03-31T22:19:11;3.13;;;1.70;;
69485;SDS011;56677;51.710;5.366;2023-03-31T22:21:36;3.60;;;1.88;;
69485;SDS011;56677;51.710;5.366;2023-03-31T22:24:02;5.93;;;2.25;;
69485;SDS011;56677;51.710;5.366;2023-03-31T22:26:28;2.80;;;1.90;;
69485;SDS011;56677;51.710;5.366;2023-03-31T22:28:53;3.75;;;1.60;;
69485;SDS011;56677;51.710;5.366;2023-03-31T22:31:19;3.10;;;1.80;;
69485;SDS011;56677;51.710;5.366;2023-03-31T22:33:44;4.53;;;1.87;;
69485;SDS011;56677;51.710;5.366;2023-03-31T22:36:09;3.43;;;2.10;;
